Ana Sayfa
METAR-TAF:

METAR-TAF

Havaalanları :

Fairfield Municipal Airport

Fairfield, Iowa, Amerika Birleşik Devletleri

Enlem: 41-03N, Boylam: 091-59W, yükseklik: 244 m

Güncel hava durumu gözlemi

Rapor saat 17:15 UTC de 24 dakika önce yapıldı.
Rüzgar güney/güneybatıdan 13 kt ve 20 kt'a kadar ani rüzgarlar
Sıcaklık 28°C
Nem 42%
Basınç 1010 hPa
Görüş mesafesi: 16.1 km
Açık gökyüzü

METAR: KFFL 181715Z AUTO 20013G20KT 10SM CLR 28/14 A2982 RMK A01

Saat: 12:39 (17:39 UTC)


TAF: eksik

4.000'den fazla havaalanı için hava durumu gözlemleri ve tahminleri (METAR ve TAF raporları).

Kullanılabilir istasyonlar harita üzerinde sarı ve kırmızı noktalarla gösterilir.

İstasyonun adını görmek için fareyi noktanın üzerinde gezdirin.

Sonrasında hava gözlem ve tahminlerini görmek için tıklayın.

Haritayı değiştirmek için: yaklaştırmak için siyah artı işaretli yeşil düğmeye ve uzaklaştırmak için de eksi işaretli düğmeye hızla tıklayın; bitişik haritalar için yeşil okları kullanın.


METAR-TAF: